Hoss — WDC6733 — position and weather

sailwx.info

Track history (hours):
 
Tides and Currents Weather Stations Pressure Air Temp Water Temp Dewpoint Dewpoint Depression Visibility Wind Speed Wind Dir Waves Ship Positions

Hoss

Owner: Intracoastal Marine Inc., Coinjock, NC. More information available from US FCC via Universal Licensing System and Coast Guard Vessel Documentation Center.

Last reported at 2017-Oct-19 18:30 UTC. Time now 2017-Oct-19 18:39 UTC.
Position N 36°48' W 076°17'.

Length 10 m; draft 3 m.

Type: Tug. MMSI: 367060510.

Date/timePositionNaut miles runAvg speedWind from/ knotsBaromVisibWave heightAir tempDewpointWater temp
2017-Oct-19 18:30N 36°48' W 076°17'0 0.7
2017-Oct-19 18:00N 36°48' W 076°17'2 4.1
2017-Oct-19 17:31N 36°50' W 076°16'0 0.6
2017-Oct-19 16:57N 36°50' W 076°16'3 5.7
2017-Oct-19 16:31N 36°51' W 076°19'2 4.4
2017-Oct-19 16:01N 36°53' W 076°20'0 0.1
2017-Oct-19 15:28N 36°53' W 076°20'0 0.0
2017-Oct-19 14:53N 36°53' W 076°20'0 0.0
2017-Oct-19 13:58N 36°53' W 076°20'0 0.0
2017-Oct-19 13:30N 36°53' W 076°20'0 0.0
2017-Oct-19 13:00N 36°53' W 076°20'2 5.0
2017-Oct-19 12:30N 36°56' W 076°20'1 1.6
2017-Oct-19 11:53N 36°57' W 076°20'3 3.4
2017-Oct-19 11:04N 36°54' W 076°20'0 8.5
2017-Oct-19 11:01N 36°53' W 076°20'4 7.8
2017-Oct-19 10:30N 36°50' W 076°18'2 0.1
2017-Oct-18 18:08N 36°48' W 076°17'0 0.0
2017-Oct-18 18:01N 36°48' W 076°17'2 4.7
2017-Oct-18 17:30N 36°51' W 076°18'5 7.5
2017-Oct-18 16:53N 36°55' W 076°20'1 0.2
2017-Oct-18 10:47N 36°56' W 076°20'6 2.4
2017-Oct-18 08:21N 36°51' W 076°17'2 3.1
2017-Oct-18 07:42N 36°48' W 076°17'0 0.0
2017-Oct-18 07:30N 36°48' W 076°17'0 0.0
2017-Oct-18 07:00N 36°48' W 076°17'0 0.0
2017-Oct-18 06:28N 36°48' W 076°17'0 0.0
2017-Oct-18 06:00N 36°48' W 076°17'0 0.0
2017-Oct-18 05:21N 36°48' W 076°17'0 0.0
2017-Oct-18 04:59N 36°48' W 076°17'0 0.0
2017-Oct-18 04:22N 36°48' W 076°17'0 0.2
2017-Oct-18 02:06N 36°48' W 076°17'0 0.1
2017-Oct-18 01:51N 36°48' W 076°17'0 0.0
2017-Oct-17 15:45N 36°48' W 076°17'0 0.0
2017-Oct-17 15:19N 36°48' W 076°17'0 0.0
2017-Oct-17 15:00N 36°48' W 076°17'0 0.0
2017-Oct-17 14:30N 36°48' W 076°17'0 0.0
2017-Oct-17 14:00N 36°48' W 076°17'0 0.0
2017-Oct-17 13:28N 36°48' W 076°17'1 1.2
2017-Oct-17 12:57N 36°48' W 076°18'2 3.5
2017-Oct-17 12:26N 36°50' W 076°18'2 4.0
2017-Oct-17 12:00N 36°50' W 076°16'1 0.8
2017-Oct-17 11:18N 36°50' W 076°15'0 0.0
2017-Oct-17 10:59N 36°50' W 076°15'0 0.0
2017-Oct-17 10:26N 36°50' W 076°15'0 0.0
2017-Oct-17 09:57N 36°50' W 076°15'0 0.0
2017-Oct-17 08:26N 36°50' W 076°15'0 0.0
2017-Oct-17 08:01N 36°50' W 076°15'0 0.0
2017-Oct-17 07:30N 36°50' W 076°15'0 0.0
2017-Oct-17 07:01N 36°50' W 076°15'0 0.0
2017-Oct-17 06:30N 36°50' W 076°15'0 0.0
2017-Oct-17 06:01N 36°50' W 076°15'0 0.0
2017-Oct-17 05:31N 36°50' W 076°15'0 0.0
2017-Oct-17 05:01N 36°50' W 076°15'0 0.0
2017-Oct-17 04:30N 36°50' W 076°15'0 0.0
2017-Oct-17 04:00N 36°50' W 076°15'0 0.0
2017-Oct-17 03:30N 36°50' W 076°15'0 0.0
2017-Oct-17 03:01N 36°50' W 076°15'0 0.0
2017-Oct-17 02:31N 36°50' W 076°15'1 1.6
2017-Oct-17 01:58N 36°50' W 076°16'2 4.2
2017-Oct-17 01:31N 36°51' W 076°18'3 5.2
2017-Oct-17 01:00N 36°53' W 076°20'0 0.0
2017-Oct-17 00:30N 36°53' W 076°20'0 0.0
2017-Oct-17 00:00N 36°53' W 076°20'0 0.0
2017-Oct-16 23:30N 36°53' W 076°20'0 0.0
2017-Oct-16 23:00N 36°53' W 076°20'0 0.0
2017-Oct-16 22:30N 36°53' W 076°20'0 0.0
2017-Oct-16 22:00N 36°53' W 076°20'0 0.0
2017-Oct-16 21:30N 36°53' W 076°20'0 0.0
2017-Oct-16 21:00N 36°53' W 076°20'0 0.0
2017-Oct-16 20:30N 36°53' W 076°20'0 0.0
2017-Oct-16 20:00N 36°53' W 076°20'0 0.0
2017-Oct-16 19:30N 36°53' W 076°20'0 0.0
2017-Oct-16 19:00N 36°53' W 076°20'0 0.0
2017-Oct-16 18:29N 36°53' W 076°20'0 0.0
2017-Oct-16 18:00N 36°53' W 076°20'3 5.1
2017-Oct-16 17:29N 36°56' W 076°20'0 0.1
2017-Oct-16 10:39N 36°56' W 076°20'2 3.3
2017-Oct-16 10:03N 36°54' W 076°20'1 7.0
2017-Oct-16 09:56N 36°53' W 076°20'3 6.9
2017-Oct-16 09:30N 36°51' W 076°18'3 5.1
2017-Oct-16 09:00N 36°50' W 076°15'0 0.0
2017-Oct-16 08:30N 36°50' W 076°15'0 0.0
2017-Oct-16 08:00N 36°50' W 076°15'0 0.0
2017-Oct-16 07:30N 36°50' W 076°15'0 0.0
2017-Oct-16 07:00N 36°50' W 076°15'0 0.0
2017-Oct-16 06:30N 36°50' W 076°15'0 0.0
2017-Oct-16 06:00N 36°50' W 076°15'0 0.0
2017-Oct-16 05:30N 36°50' W 076°15'0 0.0
2017-Oct-16 05:00N 36°50' W 076°15'0 0.0
2017-Oct-16 04:30N 36°50' W 076°15'0 0.0
2017-Oct-16 04:00N 36°50' W 076°15'0 0.0
2017-Oct-16 03:30N 36°50' W 076°15'0 0.0
2017-Oct-16 03:00N 36°50' W 076°15'0 0.0
2017-Oct-16 02:30N 36°50' W 076°15'0 0.0
2017-Oct-16 02:00N 36°50' W 076°15'0 0.0
2017-Oct-16 01:30N 36°50' W 076°15'0 0.0
2017-Oct-16 01:00N 36°50' W 076°15'0 0.0
2017-Oct-16 00:30N 36°50' W 076°15'0 0.0
2017-Oct-16 00:00N 36°50' W 076°15'0 0.0
2017-Oct-15 23:30N 36°50' W 076°15'0 0.0
2017-Oct-15 23:00N 36°50' W 076°15'0 0.0
2017-Oct-15 22:30N 36°50' W 076°15'0 0.0
2017-Oct-15 22:00N 36°50' W 076°15'0 0.0
2017-Oct-15 21:30N 36°50' W 076°15'0 0.0
2017-Oct-15 21:00N 36°50' W 076°15'0 0.1
2017-Oct-15 20:30N 36°50' W 076°15'1 2.2
2017-Oct-15 20:00N 36°50' W 076°16'1 2.8
2017-Oct-15 19:30N 36°51' W 076°18'0 0.0
2017-Oct-15 15:47N 36°51' W 076°18'0 0.1
2017-Oct-15 15:30N 36°51' W 076°18'0 0.0
2017-Oct-15 14:43N 36°51' W 076°18'0 0.0
2017-Oct-15 14:00N 36°51' W 076°18'0 0.0
2017-Oct-15 13:30N 36°51' W 076°18'2 0.1
2017-Oct-14 17:38N 36°48' W 076°17'0 0.1
2017-Oct-14 17:31N 36°48' W 076°17'0 0.0
2017-Oct-14 17:00N 36°48' W 076°17'0 0.0
2017-Oct-14 16:31N 36°48' W 076°17'0 0.0
2017-Oct-14 16:00N 36°48' W 076°17'0 0.0
2017-Oct-14 15:30N 36°48' W 076°17'0 0.0
2017-Oct-14 15:01N 36°48' W 076°17'0 0.0
2017-Oct-14 14:30N 36°48' W 076°17'0 0.7
2017-Oct-14 14:01N 36°48' W 076°17'0 0.2
2017-Oct-14 13:31N 36°48' W 076°17'0 0.3
2017-Oct-14 13:01N 36°48' W 076°17'  
Track history (hours):
 
Tides and Currents Weather Stations Pressure Air Temp Water Temp Dewpoint Dewpoint Depression Visibility Wind Speed Wind Dir Waves Ship Positions

Hoss

Owner: Intracoastal Marine Inc., Coinjock, NC. More information available from US FCC via Universal Licensing System and Coast Guard Vessel Documentation Center.

Last reported at 2017-Oct-19 18:30 UTC. Time now 2017-Oct-19 18:39 UTC.
Position N 36°48' W 076°17'.

Length 10 m; draft 3 m.

Type: Tug. MMSI: 367060510.

Date/timePositionNaut miles runAvg speedWind from/ knotsBaromVisibWave heightAir tempDewpointWater temp
2017-Oct-19 18:30N 36°48' W 076°17'0 0.7
2017-Oct-19 18:00N 36°48' W 076°17'2 4.1
2017-Oct-19 17:31N 36°50' W 076°16'0 0.6
2017-Oct-19 16:57N 36°50' W 076°16'3 5.7
2017-Oct-19 16:31N 36°51' W 076°19'2 4.4
2017-Oct-19 16:01N 36°53' W 076°20'0 0.1
2017-Oct-19 15:28N 36°53' W 076°20'0 0.0
2017-Oct-19 14:53N 36°53' W 076°20'0 0.0
2017-Oct-19 13:58N 36°53' W 076°20'0 0.0
2017-Oct-19 13:30N 36°53' W 076°20'0 0.0
2017-Oct-19 13:00N 36°53' W 076°20'2 5.0
2017-Oct-19 12:30N 36°56' W 076°20'1 1.6
2017-Oct-19 11:53N 36°57' W 076°20'3 3.4
2017-Oct-19 11:04N 36°54' W 076°20'0 8.5
2017-Oct-19 11:01N 36°53' W 076°20'4 7.8
2017-Oct-19 10:30N 36°50' W 076°18'2 0.1
2017-Oct-18 18:08N 36°48' W 076°17'0 0.0
2017-Oct-18 18:01N 36°48' W 076°17'2 4.7
2017-Oct-18 17:30N 36°51' W 076°18'5 7.5
2017-Oct-18 16:53N 36°55' W 076°20'1 0.2
2017-Oct-18 10:47N 36°56' W 076°20'6 2.4
2017-Oct-18 08:21N 36°51' W 076°17'2 3.1
2017-Oct-18 07:42N 36°48' W 076°17'0 0.0
2017-Oct-18 07:30N 36°48' W 076°17'0 0.0
2017-Oct-18 07:00N 36°48' W 076°17'0 0.0
2017-Oct-18 06:28N 36°48' W 076°17'0 0.0
2017-Oct-18 06:00N 36°48' W 076°17'0 0.0
2017-Oct-18 05:21N 36°48' W 076°17'0 0.0
2017-Oct-18 04:59N 36°48' W 076°17'0 0.0
2017-Oct-18 04:22N 36°48' W 076°17'0 0.2
2017-Oct-18 02:06N 36°48' W 076°17'0 0.1
2017-Oct-18 01:51N 36°48' W 076°17'0 0.0
2017-Oct-17 15:45N 36°48' W 076°17'0 0.0
2017-Oct-17 15:19N 36°48' W 076°17'0 0.0
2017-Oct-17 15:00N 36°48' W 076°17'0 0.0
2017-Oct-17 14:30N 36°48' W 076°17'0 0.0
2017-Oct-17 14:00N 36°48' W 076°17'0 0.0
2017-Oct-17 13:28N 36°48' W 076°17'1 1.2
2017-Oct-17 12:57N 36°48' W 076°18'2 3.5
2017-Oct-17 12:26N 36°50' W 076°18'2 4.0
2017-Oct-17 12:00N 36°50' W 076°16'1 0.8
2017-Oct-17 11:18N 36°50' W 076°15'0 0.0
2017-Oct-17 10:59N 36°50' W 076°15'0 0.0
2017-Oct-17 10:26N 36°50' W 076°15'0 0.0
2017-Oct-17 09:57N 36°50' W 076°15'0 0.0
2017-Oct-17 08:26N 36°50' W 076°15'0 0.0
2017-Oct-17 08:01N 36°50' W 076°15'0 0.0
2017-Oct-17 07:30N 36°50' W 076°15'0 0.0
2017-Oct-17 07:01N 36°50' W 076°15'0 0.0
2017-Oct-17 06:30N 36°50' W 076°15'0 0.0
2017-Oct-17 06:01N 36°50' W 076°15'0 0.0
2017-Oct-17 05:31N 36°50' W 076°15'0 0.0
2017-Oct-17 05:01N 36°50' W 076°15'0 0.0
2017-Oct-17 04:30N 36°50' W 076°15'0 0.0
2017-Oct-17 04:00N 36°50' W 076°15'0 0.0
2017-Oct-17 03:30N 36°50' W 076°15'0 0.0
2017-Oct-17 03:01N 36°50' W 076°15'0 0.0
2017-Oct-17 02:31N 36°50' W 076°15'1 1.6
2017-Oct-17 01:58N 36°50' W 076°16'2 4.2
2017-Oct-17 01:31N 36°51' W 076°18'3 5.2
2017-Oct-17 01:00N 36°53' W 076°20'0 0.0
2017-Oct-17 00:30N 36°53' W 076°20'0 0.0
2017-Oct-17 00:00N 36°53' W 076°20'0 0.0
2017-Oct-16 23:30N 36°53' W 076°20'0 0.0
2017-Oct-16 23:00N 36°53' W 076°20'0 0.0
2017-Oct-16 22:30N 36°53' W 076°20'0 0.0
2017-Oct-16 22:00N 36°53' W 076°20'0 0.0
2017-Oct-16 21:30N 36°53' W 076°20'0 0.0
2017-Oct-16 21:00N 36°53' W 076°20'0 0.0
2017-Oct-16 20:30N 36°53' W 076°20'0 0.0
2017-Oct-16 20:00N 36°53' W 076°20'0 0.0
2017-Oct-16 19:30N 36°53' W 076°20'0 0.0
2017-Oct-16 19:00N 36°53' W 076°20'0 0.0
2017-Oct-16 18:29N 36°53' W 076°20'0 0.0
2017-Oct-16 18:00N 36°53' W 076°20'3 5.1
2017-Oct-16 17:29N 36°56' W 076°20'0 0.1
2017-Oct-16 10:39N 36°56' W 076°20'2 3.3
2017-Oct-16 10:03N 36°54' W 076°20'1 7.0
2017-Oct-16 09:56N 36°53' W 076°20'3 6.9
2017-Oct-16 09:30N 36°51' W 076°18'3 5.1
2017-Oct-16 09:00N 36°50' W 076°15'0 0.0
2017-Oct-16 08:30N 36°50' W 076°15'0 0.0
2017-Oct-16 08:00N 36°50' W 076°15'0 0.0
2017-Oct-16 07:30N 36°50' W 076°15'0 0.0
2017-Oct-16 07:00N 36°50' W 076°15'0 0.0
2017-Oct-16 06:30N 36°50' W 076°15'0 0.0
2017-Oct-16 06:00N 36°50' W 076°15'0 0.0
2017-Oct-16 05:30N 36°50' W 076°15'0 0.0
2017-Oct-16 05:00N 36°50' W 076°15'0 0.0
2017-Oct-16 04:30N 36°50' W 076°15'0 0.0
2017-Oct-16 04:00N 36°50' W 076°15'0 0.0
2017-Oct-16 03:30N 36°50' W 076°15'0 0.0
2017-Oct-16 03:00N 36°50' W 076°15'0 0.0
2017-Oct-16 02:30N 36°50' W 076°15'0 0.0
2017-Oct-16 02:00N 36°50' W 076°15'0 0.0
2017-Oct-16 01:30N 36°50' W 076°15'0 0.0
2017-Oct-16 01:00N 36°50' W 076°15'0 0.0
2017-Oct-16 00:30N 36°50' W 076°15'0 0.0
2017-Oct-16 00:00N 36°50' W 076°15'0 0.0
2017-Oct-15 23:30N 36°50' W 076°15'0 0.0
2017-Oct-15 23:00N 36°50' W 076°15'0 0.0
2017-Oct-15 22:30N 36°50' W 076°15'0 0.0
2017-Oct-15 22:00N 36°50' W 076°15'0 0.0
2017-Oct-15 21:30N 36°50' W 076°15'0 0.0
2017-Oct-15 21:00N 36°50' W 076°15'0 0.1
2017-Oct-15 20:30N 36°50' W 076°15'1 2.2
2017-Oct-15 20:00N 36°50' W 076°16'1 2.8
2017-Oct-15 19:30N 36°51' W 076°18'0 0.0
2017-Oct-15 15:47N 36°51' W 076°18'0 0.1
2017-Oct-15 15:30N 36°51' W 076°18'0 0.0
2017-Oct-15 14:43N 36°51' W 076°18'0 0.0
2017-Oct-15 14:00N 36°51' W 076°18'0 0.0
2017-Oct-15 13:30N 36°51' W 076°18'2 0.1
2017-Oct-14 17:38N 36°48' W 076°17'0 0.1
2017-Oct-14 17:31N 36°48' W 076°17'0 0.0
2017-Oct-14 17:00N 36°48' W 076°17'0 0.0
2017-Oct-14 16:31N 36°48' W 076°17'0 0.0
2017-Oct-14 16:00N 36°48' W 076°17'0 0.0
2017-Oct-14 15:30N 36°48' W 076°17'0 0.0
2017-Oct-14 15:01N 36°48' W 076°17'0 0.0
2017-Oct-14 14:30N 36°48' W 076°17'0 0.7
2017-Oct-14 14:01N 36°48' W 076°17'0 0.2
2017-Oct-14 13:31N 36°48' W 076°17'0 0.3
2017-Oct-14 13:01N 36°48' W 076°17'  

Dump ship's entire track history